createdAt,value
2022-09-17T00:04:56.651Z,0
2022-09-17T00:09:56.619Z,0
2022-09-17T00:14:56.648Z,0
2022-09-17T00:19:56.767Z,0
2022-09-17T00:24:56.662Z,0
2022-09-17T00:29:56.643Z,0
2022-09-17T00:34:56.621Z,0
2022-09-17T00:39:56.863Z,0
2022-09-17T00:44:56.620Z,0
2022-09-17T00:49:56.606Z,0
2022-09-17T00:54:56.613Z,0
2022-09-17T00:59:56.748Z,0
2022-09-17T01:04:56.613Z,0
2022-09-17T01:09:56.630Z,0
2022-09-17T01:14:56.598Z,0
2022-09-17T01:19:56.739Z,0
2022-09-17T01:24:56.623Z,0
2022-09-17T01:29:56.611Z,0
2022-09-17T01:34:56.588Z,0
2022-09-17T01:39:56.775Z,0
2022-09-17T01:44:56.615Z,0
2022-09-17T01:49:56.617Z,0
2022-09-17T01:54:56.578Z,0
2022-09-17T01:59:56.709Z,0
2022-09-17T02:04:56.563Z,0
2022-09-17T02:09:56.567Z,0
2022-09-17T02:14:56.568Z,0
2022-09-17T02:19:56.673Z,0
2022-09-17T02:24:56.581Z,0
2022-09-17T02:29:56.599Z,0
2022-09-17T02:34:56.573Z,0
2022-09-17T02:39:56.677Z,0
2022-09-17T02:44:56.551Z,0
2022-09-17T02:49:56.598Z,0
2022-09-17T02:54:56.555Z,0
2022-09-17T02:59:56.694Z,0
2022-09-17T03:04:56.557Z,0
2022-09-17T03:09:56.567Z,0
2022-09-17T03:14:56.561Z,0
2022-09-17T03:19:56.690Z,0
2022-09-17T03:24:56.565Z,0
2022-09-17T03:29:56.584Z,0
2022-09-17T03:34:56.557Z,0
2022-09-17T03:39:56.712Z,0
2022-09-17T03:44:56.558Z,0
2022-09-17T03:49:56.571Z,0
2022-09-17T03:54:56.517Z,0
2022-09-17T03:59:56.635Z,0
2022-09-17T04:04:56.534Z,0
2022-09-17T04:09:56.548Z,0
2022-09-17T04:14:56.526Z,0
2022-09-17T04:19:56.672Z,0
2022-09-17T04:24:56.530Z,0
2022-09-17T04:29:56.515Z,0
2022-09-17T04:34:56.536Z,0
2022-09-17T04:39:56.706Z,0
2022-09-17T04:44:56.508Z,0
2022-09-17T04:49:56.522Z,0
2022-09-17T04:54:56.521Z,0
2022-09-17T04:59:56.649Z,0
2022-09-17T05:04:56.532Z,0
2022-09-17T05:09:56.506Z,2
2022-09-17T05:14:56.521Z,2
2022-09-17T05:19:56.607Z,6
2022-09-17T05:24:56.500Z,7
2022-09-17T05:29:56.535Z,5
2022-09-17T05:34:56.486Z,12
2022-09-17T05:39:56.656Z,15
2022-09-17T05:44:56.519Z,14
2022-09-17T05:49:56.491Z,18
2022-09-17T05:54:56.519Z,24
2022-09-17T05:59:56.612Z,26
2022-09-17T06:04:56.490Z,26
2022-09-17T06:09:56.468Z,27
2022-09-17T06:14:56.493Z,49
2022-09-17T06:19:56.650Z,57
2022-09-17T06:24:56.493Z,91
2022-09-17T06:29:56.461Z,87
2022-09-17T06:34:56.493Z,100
2022-09-17T06:39:56.661Z,119
2022-09-17T06:44:58.138Z,117
2022-09-17T06:49:56.503Z,90
2022-09-17T06:54:56.485Z,38
2022-09-17T06:59:56.570Z,72
2022-09-17T07:04:56.480Z,108
2022-09-17T07:09:56.473Z,131
2022-09-17T07:14:56.464Z,196
2022-09-17T07:19:56.590Z,93
2022-09-17T07:24:56.465Z,140
2022-09-17T07:29:56.481Z,324
2022-09-17T07:34:56.452Z,369
2022-09-17T07:39:56.616Z,387
2022-09-17T07:44:59.878Z,412
2022-09-17T07:49:56.459Z,425
2022-09-17T07:54:56.452Z,445
2022-09-17T07:59:56.563Z,497
2022-09-17T08:04:56.461Z,441
2022-09-17T08:09:56.472Z,512
2022-09-17T08:14:56.462Z,510
2022-09-17T08:19:56.640Z,525
2022-09-17T08:24:56.442Z,550
2022-09-17T08:29:56.467Z,572
2022-09-17T08:34:58.369Z,590
2022-09-17T08:39:56.891Z,654
2022-09-17T08:45:00.450Z,435
2022-09-17T08:49:56.690Z,687
2022-09-17T08:54:56.667Z,715
2022-09-17T08:59:56.808Z,725
2022-09-17T09:04:56.686Z,740
2022-09-17T09:09:56.689Z,782
2022-09-17T09:14:56.691Z,814
2022-09-17T09:19:56.813Z,537
2022-09-17T09:24:56.679Z,659
2022-09-17T09:29:56.652Z,875
2022-09-17T09:34:56.687Z,487
2022-09-17T09:39:56.832Z,802
2022-09-17T09:44:57.472Z,867
2022-09-17T09:49:56.654Z,862
2022-09-17T09:54:56.658Z,541
2022-09-17T09:59:56.774Z,753
2022-09-17T10:04:56.662Z,868
2022-09-17T10:09:56.642Z,890
2022-09-17T10:14:56.667Z,924
2022-09-17T10:19:56.756Z,954
2022-09-17T10:24:56.678Z,566
2022-09-17T10:29:56.630Z,546
2022-09-17T10:34:56.660Z,540
2022-09-17T10:39:56.841Z,647
2022-09-17T10:44:56.676Z,702
2022-09-17T10:49:56.669Z,304
2022-09-17T10:54:56.644Z,701
2022-09-17T10:59:56.786Z,870
2022-09-17T11:04:56.637Z,609
2022-09-17T11:09:56.637Z,624
2022-09-17T11:14:56.662Z,633
2022-09-17T11:19:56.741Z,457
2022-09-17T11:24:56.635Z,420
2022-09-17T11:29:56.628Z,430
2022-09-17T11:34:56.619Z,355
2022-09-17T11:39:56.766Z,326
2022-09-17T11:44:56.616Z,337
2022-09-17T11:49:56.642Z,341
2022-09-17T11:54:56.653Z,277
2022-09-17T11:59:56.752Z,461
2022-09-17T12:04:56.610Z,560
2022-09-17T12:09:56.617Z,1021
2022-09-17T12:14:56.629Z,463
2022-09-17T12:19:56.753Z,645
2022-09-17T12:24:56.603Z,328
2022-09-17T12:30:00.195Z,633
2022-09-17T12:34:56.592Z,514
2022-09-17T12:39:56.750Z,225
2022-09-17T12:44:56.599Z,177
2022-09-17T12:49:56.625Z,157
2022-09-17T12:54:56.616Z,148
2022-09-17T12:59:56.746Z,623
2022-09-17T13:05:01.234Z,765
2022-09-17T13:09:56.588Z,778
2022-09-17T13:14:56.604Z,814
2022-09-17T13:19:56.675Z,409
2022-09-17T13:24:56.600Z,492
2022-09-17T13:29:56.583Z,692
2022-09-17T13:34:56.630Z,648
2022-09-17T13:39:56.765Z,643
2022-09-17T13:44:56.567Z,642
2022-09-17T13:49:56.609Z,259
2022-09-17T13:54:56.605Z,360
2022-09-17T13:59:56.706Z,261
2022-09-17T14:04:56.606Z,45
2022-09-17T14:09:56.592Z,84
2022-09-17T14:14:56.613Z,176
2022-09-17T14:19:56.707Z,449
2022-09-17T14:24:56.574Z,296
2022-09-17T14:29:56.584Z,111
2022-09-17T14:34:56.602Z,117
2022-09-17T14:39:56.703Z,60
2022-09-17T14:44:56.578Z,33
2022-09-17T14:49:56.582Z,285
2022-09-17T14:54:56.596Z,300
2022-09-17T14:59:56.695Z,221
2022-09-17T15:04:56.556Z,189
2022-09-17T15:09:56.572Z,163
2022-09-17T15:14:56.571Z,146
2022-09-17T15:19:56.723Z,162
2022-09-17T15:24:56.648Z,149
2022-09-17T15:29:56.554Z,135
2022-09-17T15:34:56.542Z,145
2022-09-17T15:39:56.764Z,190
2022-09-17T15:44:56.542Z,205
2022-09-17T15:49:56.585Z,164
2022-09-17T15:54:56.545Z,92
2022-09-17T15:59:56.688Z,112
2022-09-17T16:04:56.566Z,128
2022-09-17T16:09:56.537Z,118
2022-09-17T16:14:56.586Z,112
2022-09-17T16:19:56.712Z,84
2022-09-17T16:24:56.542Z,70
2022-09-17T16:29:56.571Z,58
2022-09-17T16:34:56.560Z,46
2022-09-17T16:39:56.700Z,41
2022-09-17T16:44:56.529Z,53
2022-09-17T16:49:56.795Z,67
2022-09-17T16:54:57.295Z,54
2022-09-17T16:59:57.432Z,35
2022-09-17T17:04:57.263Z,30
2022-09-17T17:09:57.297Z,28
2022-09-17T17:14:57.311Z,25
2022-09-17T17:19:57.409Z,18
2022-09-17T17:24:57.310Z,9
2022-09-17T17:29:57.301Z,6
2022-09-17T17:34:57.307Z,0
2022-09-17T17:39:57.513Z,0
2022-09-17T17:44:57.302Z,0
2022-09-17T17:49:57.300Z,0
2022-09-17T17:54:57.268Z,0
2022-09-17T17:59:57.401Z,0
2022-09-17T18:04:59.761Z,0
2022-09-17T18:09:57.280Z,0
2022-09-17T18:14:57.246Z,0
2022-09-17T18:19:57.473Z,0
2022-09-17T18:24:57.277Z,0
2022-09-17T18:29:57.244Z,0
2022-09-17T18:34:57.264Z,0
2022-09-17T18:39:59.007Z,0
2022-09-17T18:44:57.298Z,0
2022-09-17T18:49:57.270Z,0
2022-09-17T18:54:57.255Z,0
2022-09-17T18:59:57.393Z,0
2022-09-17T19:04:57.267Z,0
2022-09-17T19:09:57.261Z,0
2022-09-17T19:14:57.253Z,0
2022-09-17T19:19:57.337Z,0
2022-09-17T19:24:57.241Z,0
2022-09-17T19:29:57.222Z,0
2022-09-17T19:34:57.278Z,0
2022-09-17T19:39:57.366Z,0
2022-09-17T19:44:57.235Z,0
2022-09-17T19:49:57.248Z,0
2022-09-17T19:54:57.219Z,0
2022-09-17T19:59:57.365Z,0
2022-09-17T20:04:57.225Z,0
2022-09-17T20:09:57.201Z,0
2022-09-17T20:14:57.226Z,0
2022-09-17T20:19:57.348Z,0
2022-09-17T20:24:57.223Z,0
2022-09-17T20:29:57.201Z,0
2022-09-17T20:34:57.209Z,0
2022-09-17T20:39:57.408Z,0
2022-09-17T20:44:57.216Z,0
2022-09-17T20:49:57.228Z,0
2022-09-17T20:54:57.169Z,0
2022-09-17T20:59:57.338Z,0
2022-09-17T21:04:57.170Z,0
2022-09-17T21:09:57.194Z,0
2022-09-17T21:14:57.434Z,0
2022-09-17T21:19:57.567Z,0
2022-09-17T21:24:57.448Z,0
2022-09-17T21:29:57.418Z,0
2022-09-17T21:34:57.457Z,0
2022-09-17T21:39:57.653Z,0
2022-09-17T21:44:57.420Z,0
2022-09-17T21:49:57.415Z,0
2022-09-17T21:54:57.436Z,0
2022-09-17T21:59:57.539Z,0
2022-09-17T22:04:57.426Z,0
2022-09-17T22:09:57.435Z,0
2022-09-17T22:14:57.407Z,0
2022-09-17T22:19:57.525Z,0
2022-09-17T22:24:57.400Z,0
2022-09-17T22:29:57.375Z,0
2022-09-17T22:34:57.389Z,0
2022-09-17T22:39:57.478Z,0
2022-09-17T22:44:57.400Z,0
2022-09-17T22:49:57.365Z,0
2022-09-17T22:54:57.379Z,0
2022-09-17T22:59:57.499Z,0
2022-09-17T23:04:57.365Z,0
2022-09-17T23:09:57.363Z,0
2022-09-17T23:14:57.361Z,0
2022-09-17T23:19:57.483Z,0
2022-09-17T23:24:57.386Z,0
2022-09-17T23:29:57.357Z,0
2022-09-17T23:34:57.348Z,0
2022-09-17T23:39:57.486Z,0
2022-09-17T23:44:57.338Z,0
2022-09-17T23:49:57.348Z,0
2022-09-17T23:54:58.517Z,0
2022-09-17T23:59:57.481Z,0
